Time;durP1;ratioP1;P1;durP2;ratioP2;P2;SDS_P1;SDS_P2;PMS_P1;PMS_P2;Temp;Humidity;BMP_temperature;BMP_pressure;BME280_temperature;BME280_humidity;BME280_pressure;Samples;Min_cycle;Max_cycle;Signal;HPM_P1;HPM_P2
2021/11/04 00:00:08;;;;;;;38.13;17.85;;;;;;;9.39;84.34;100283.47;5050805;28;20033;-20
2021/11/04 00:02:33;;;;;;;26.55;17.10;;;;;;;9.55;83.55;100282.25;5051322;28;20024;-21
2021/11/04 00:04:58;;;;;;;31.65;16.98;;;;;;;9.84;82.60;100302.28;5068963;28;20032;-20
2021/11/04 00:07:25;;;;;;;37.58;15.60;;;;;;;10.03;81.91;100310.41;5051046;28;20085;-21
2021/11/04 00:09:50;;;;;;;23.92;15.02;;;;;;;9.82;82.69;100304.31;5068928;28;20029;-19
2021/11/04 00:12:16;;;;;;;24.65;14.95;;;;;;;9.72;83.27;100313.78;5051101;28;20042;-19
2021/11/04 00:14:41;;;;;;;27.83;14.88;;;;;;;9.22;85.91;100312.34;5068595;28;20119;-21
2021/11/04 00:17:07;;;;;;;22.45;15.30;;;;;;;9.01;86.94;100309.88;5051148;28;20085;-20
2021/11/04 00:19:32;;;;;;;26.77;16.17;;;;;;;9.06;87.46;100304.78;5068810;28;20036;-19
2021/11/04 00:21:58;;;;;;;32.63;16.25;;;;;;;9.23;87.50;100295.38;5050573;28;20499;-19
2021/11/04 00:24:24;;;;;;;33.25;17.95;;;;;;;8.95;87.88;100286.72;5068901;28;20028;-20
2021/11/04 00:26:50;;;;;;;32.95;17.63;;;;;;;8.90;89.05;100305.97;5050772;28;20054;-20
2021/11/04 00:29:15;;;;;;;58.75;18.48;;;;;;;9.39;87.14;100310.09;5068842;28;20028;-20
2021/11/04 00:31:41;;;;;;;58.28;16.83;;;;;;;9.41;85.53;100308.06;5051006;28;20420;-21
2021/11/04 00:34:06;;;;;;;82.85;18.48;;;;;;;9.03;88.28;100305.16;5050718;28;20131;-20
2021/11/04 00:36:32;;;;;;;113.93;19.17;;;;;;;8.96;89.21;100299.03;5050732;28;20485;-20
2021/11/04 00:38:57;;;;;;;119.05;18.23;;;;;;;9.47;86.05;100311.75;5050286;28;20048;-20
2021/11/04 00:41:23;;;;;;;72.53;17.90;;;;;;;9.07;86.47;100294.94;5068489;28;20028;-20
2021/11/04 00:43:50;;;;;;;92.63;20.55;;;;;;;9.33;86.20;100304.78;5068097;28;20052;-20
2021/11/04 00:46:15;;;;;;;81.70;19.60;;;;;;;8.96;87.50;100302.50;5068511;28;20028;-20
2021/11/04 00:48:41;;;;;;;199.95;24.50;;;;;;;9.17;87.96;100311.31;5068245;28;20033;-20
2021/11/04 00:51:06;;;;;;;70.65;18.48;;;;;;;8.93;88.22;100318.03;5049558;28;20029;-20
2021/11/04 00:53:32;;;;;;;45.40;17.05;;;;;;;8.92;88.24;100300.44;5050261;28;20718;-20
2021/11/04 00:56:00;;;;;;;101.53;20.77;;;;;;;9.29;86.58;100325.66;5033641;28;20503;-21
2021/11/04 00:58:25;;;;;;;113.40;23.55;;;;;;;9.33;87.12;100310.91;5068032;28;20111;-20
2021/11/04 01:00:51;;;;;;;133.73;20.42;;;;;;;9.48;86.39;100347.16;5050080;28;20044;-19
2021/11/04 01:03:16;;;;;;;62.28;18.15;;;;;;;9.04;87.66;100341.41;5068239;28;20028;-19
2021/11/04 01:05:42;;;;;;;109.80;22.20;;;;;;;9.22;87.34;100336.31;5068255;28;20032;-20
2021/11/04 01:08:08;;;;;;;178.85;24.90;;;;;;;9.71;86.23;100333.44;5068513;28;20480;-20
2021/11/04 01:10:33;;;;;;;54.55;18.75;;;;;;;9.69;85.54;100330.19;5050360;28;20028;-22
2021/11/04 01:12:58;;;;;;;44.85;19.98;;;;;;;9.51;86.15;100322.81;5068336;28;20072;-19
2021/11/04 01:15:24;;;;;;;88.85;19.23;;;;;;;9.47;87.59;100333.03;5068471;28;20024;-19
2021/11/04 01:17:50;;;;;;;51.53;20.23;;;;;;;9.91;85.30;100334.25;5049797;28;20416;-20
2021/11/04 01:20:15;;;;;;;91.45;19.98;;;;;;;10.01;85.35;100339.97;5050016;28;20090;-20
2021/11/04 01:22:41;;;;;;;80.75;19.77;;;;;;;9.94;85.46;100325.81;5068167;28;20032;-20
2021/11/04 01:25:07;;;;;;;42.17;18.05;;;;;;;9.69;85.86;100314.19;5049979;28;20120;-20
2021/11/04 01:27:32;;;;;;;41.95;17.52;;;;;;;9.62;87.59;100340.81;5067984;28;20028;-19
2021/11/04 01:29:58;;;;;;;46.95;17.65;;;;;;;10.06;86.20;100353.47;5049690;28;20028;-20
2021/11/04 01:32:23;;;;;;;49.42;19.02;;;;;;;10.23;85.03;100342.34;5068231;28;20469;-20
2021/11/04 01:34:49;;;;;;;45.67;18.60;;;;;;;9.98;86.63;100353.69;5067940;28;20028;-20
2021/11/04 01:37:14;;;;;;;47.90;17.15;;;;;;;10.24;85.50;100355.47;5067951;28;20088;-20
2021/11/04 01:39:40;;;;;;;39.88;18.00;;;;;;;10.24;85.28;100344.81;5049833;28;20493;-20
2021/11/04 01:42:06;;;;;;;58.75;19.75;;;;;;;10.03;86.65;100348.56;5067510;28;20142;-19
2021/11/04 01:44:31;;;;;;;39.20;18.40;;;;;;;10.17;86.69;100364.50;5067743;28;20102;-20
2021/11/04 01:46:57;;;;;;;67.60;22.42;;;;;;;10.18;87.93;100374.16;5067813;28;20036;-21
2021/11/04 01:49:22;;;;;;;41.28;19.17;;;;;;;10.08;88.10;100371.09;5050190;28;20706;-20
2021/11/04 01:51:48;;;;;;;62.75;20.05;;;;;;;10.06;87.93;100380.09;5067947;28;20093;-20
2021/11/04 01:54:14;;;;;;;98.53;20.95;;;;;;;10.40;87.04;100382.72;5049791;28;20047;-19
2021/11/04 01:56:40;;;;;;;38.90;19.05;;;;;;;10.10;87.18;100353.88;5049863;28;20048;-20
2021/11/04 01:59:05;;;;;;;79.45;19.08;;;;;;;10.41;87.08;100382.50;5067544;28;20106;-19
2021/11/04 02:01:31;;;;;;;64.82;18.67;;;;;;;10.20;87.10;100375.56;5033249;28;20477;-20
2021/11/04 02:04:26;;;;;;;37.80;17.55;;;;;;;10.38;86.76;100376.78;5071068;28;20028;-19
2021/11/04 02:06:57;;;;;;;89.03;20.70;;;;;;;10.53;86.33;100379.22;5071647;28;20028;-19
2021/11/04 02:09:29;;;;;;;50.42;19.42;;;;;;;10.72;84.96;100388.97;5053794;28;20048;-20
2021/11/04 02:12:01;;;;;;;56.55;20.35;;;;;;;10.40;86.63;100375.56;5053173;28;20083;-19
2021/11/04 02:14:32;;;;;;;33.85;16.48;;;;;;;10.48;86.07;100371.00;5037295;28;20032;-20
2021/11/04 02:16:58;;;;;;;52.88;19.67;;;;;;;10.29;87.60;100372.69;5020216;28;20029;-20
2021/11/04 02:19:47;;;;;;;50.25;19.10;;;;;;;10.35;88.46;100372.69;5036675;28;20170;-20
2021/11/04 02:22:18;;;;;;;49.20;17.20;;;;;;;10.61;87.05;100376.31;5053735;28;20033;-20
2021/11/04 02:24:47;;;;;;;50.80;19.00;;;;;;;10.36;87.66;100371.69;5071363;28;20815;-20
2021/11/04 02:27:13;;;;;;;48.70;17.75;;;;;;;10.32;87.81;100378.47;5036748;28;20100;-20
2021/11/04 02:29:39;;;;;;;42.13;19.40;;;;;;;10.30;88.45;100390.34;5036473;28;20064;-21
2021/11/04 02:32:06;;;;;;;55.10;19.65;;;;;;;10.46;87.24;100373.88;5071168;28;20028;-20
2021/11/04 02:34:32;;;;;;;48.17;19.27;;;;;;;10.59;87.21;100389.84;5052903;28;20024;-20
2021/11/04 02:36:57;;;;;;;54.83;17.42;;;;;;;10.60;86.86;100396.00;5052893;28;20028;-20
2021/11/04 02:39:25;;;;;;;45.83;17.45;;;;;;;10.21;88.50;100403.84;5035904;28;20128;-20
2021/11/04 02:41:51;;;;;;;;;;;;;;;10.11;89.38;100403.47;5071033;28;20066;-20
2021/11/04 02:44:16;;;;;;;94.47;21.75;;;;;;;10.34;88.14;100397.72;5069915;28;20004;-20
2021/11/04 02:46:42;;;;;;;87.38;22.88;;;;;;;10.62;87.18;100407.28;5052783;28;20398;-20
2021/11/04 02:49:07;;;;;;;96.10;22.88;;;;;;;10.74;86.34;100408.25;5052543;28;20028;-19
2021/11/04 02:51:33;;;;;;;111.15;22.08;;;;;;;10.83;86.09;100407.00;5035870;28;20508;-20
2021/11/04 02:53:58;;;;;;;86.18;22.73;;;;;;;10.78;85.52;100420.13;5052169;28;20059;-20
2021/11/04 02:56:24;;;;;;;64.97;21.63;;;;;;;10.70;86.13;100396.38;5070401;28;20029;-20
2021/11/04 02:58:49;;;;;;;78.88;22.50;;;;;;;10.73;86.32;100406.63;5052610;28;20480;-20
2021/11/04 03:01:15;;;;;;;112.82;22.63;;;;;;;10.71;86.39;100418.53;5070411;28;20043;-20
2021/11/04 03:03:41;;;;;;;103.15;24.65;;;;;;;10.67;87.04;100407.47;5070028;28;20040;-21
2021/11/04 03:06:06;;;;;;;113.50;25.48;;;;;;;10.82;86.30;100423.22;5070177;28;20032;-20
2021/11/04 03:08:32;;;;;;;75.75;22.95;;;;;;;10.56;87.08;100408.13;5070096;28;20040;-19
2021/11/04 03:10:57;;;;;;;64.47;22.95;;;;;;;10.29;88.16;100389.50;5070381;28;20530;-21
2021/11/04 03:13:23;;;;;;;56.75;23.67;;;;;;;10.68;86.91;100419.75;5035225;28;20043;-21
2021/11/04 03:15:54;;;;;;;61.90;22.23;;;;;;;10.65;86.45;100430.88;5052261;28;20558;-20
2021/11/04 03:18:20;;;;;;;53.85;22.35;;;;;;;10.64;87.00;100423.88;5035618;28;20109;-19
2021/11/04 03:20:45;;;;;;;59.97;24.45;;;;;;;10.88;85.38;100424.22;5052042;28;20408;-20
2021/11/04 03:23:11;;;;;;;46.85;22.85;;;;;;;10.77;86.31;100437.19;5052423;28;20032;-21
2021/11/04 03:25:37;;;;;;;45.17;22.83;;;;;;;10.86;85.70;100443.09;5052304;28;20028;-20
2021/11/04 03:28:02;;;;;;;44.08;22.63;;;;;;;10.75;87.24;100433.09;5035142;28;20021;-19
2021/11/04 03:30:31;;;;;;;45.42;21.80;;;;;;;11.13;85.41;100438.44;5051916;28;20400;-20
2021/11/04 03:32:57;;;;;;;43.75;22.13;;;;;;;11.34;84.14;100449.84;5018980;28;20108;-21
2021/11/04 03:35:24;;;;;;;44.15;21.90;;;;;;;10.70;86.91;100441.72;5051987;28;20056;-20
2021/11/04 03:37:49;;;;;;;48.00;21.95;;;;;;;10.62;88.49;100447.28;5051247;28;20523;-20
2021/11/04 03:40:15;;;;;;;43.17;21.20;;;;;;;11.15;85.46;100456.94;5051851;28;20028;-19
2021/11/04 03:42:40;;;;;;;45.67;21.85;;;;;;;11.27;84.69;100461.38;5069595;28;20033;-20
2021/11/04 03:45:09;;;;;;;49.47;21.38;;;;;;;10.80;86.94;100451.94;5051716;28;20032;-20
2021/11/04 03:47:35;;;;;;;50.90;20.73;;;;;;;11.05;85.84;100452.03;5035712;28;20032;-21
2021/11/04 03:50:01;;;;;;;52.90;21.85;;;;;;;11.18;85.03;100456.53;5051322;28;20044;-21
2021/11/04 03:52:28;;;;;;;53.83;22.35;;;;;;;11.26;84.67;100448.25;5051399;28;20033;-20
2021/11/04 03:54:54;;;;;;;61.37;22.37;;;;;;;11.43;83.96;100460.06;5051267;28;20412;-20
2021/11/04 03:57:19;;;;;;;57.63;23.67;;;;;;;11.49;84.08;100469.06;5069139;28;20797;-19
2021/11/04 03:59:48;;;;;;;57.35;23.40;;;;;;;11.42;84.15;100473.63;5050790;28;20036;-20
2021/11/04 04:02:13;;;;;;;60.53;23.40;;;;;;;11.47;83.61;100455.13;5034975;28;20553;-20
2021/11/04 04:04:39;;;;;;;69.30;24.38;;;;;;;11.57;83.61;100462.66;5017986;28;20029;-20
2021/11/04 04:07:04;;;;;;;66.90;25.25;;;;;;;11.08;85.76;100461.50;5034681;28;20407;-20
2021/11/04 04:09:30;;;;;;;63.20;24.30;;;;;;;11.04;86.13;100463.75;5034649;28;20032;-20
2021/11/04 04:11:55;;;;;;;62.60;22.02;;;;;;;11.13;85.28;100459.00;5050848;28;20029;-19
2021/11/04 04:14:21;;;;;;;68.85;23.27;;;;;;;10.85;86.89;100455.63;5068651;28;20135;-19
2021/11/04 04:16:47;;;;;;;55.28;22.60;;;;;;;11.00;86.98;100454.53;5068940;28;20036;-19
2021/11/04 04:19:12;;;;;;;86.93;25.50;;;;;;;11.22;85.86;100463.06;5068780;28;20107;-20
2021/11/04 04:21:38;;;;;;;57.17;23.60;;;;;;;11.36;85.22;100453.94;5069050;28;20045;-19
2021/11/04 04:24:03;;;;;;;54.60;23.52;;;;;;;11.54;84.57;100469.22;5068741;28;20814;-20
2021/11/04 04:26:29;;;;;;;57.67;23.42;;;;;;;11.29;86.11;100463.03;5067682;28;20481;-20
2021/11/04 04:28:55;;;;;;;71.50;22.63;;;;;;;11.27;86.49;100469.38;5068647;28;20621;-20
2021/11/04 04:31:20;;;;;;;71.68;22.05;;;;;;;11.45;84.75;100462.53;5067698;28;20696;-20
2021/11/04 04:33:46;;;;;;;63.38;22.08;;;;;;;11.51;84.84;100467.00;5067982;28;20396;-20
2021/11/04 04:36:11;;;;;;;117.13;23.70;;;;;;;11.55;84.27;100470.88;5067968;28;20036;-20
2021/11/04 04:38:37;;;;;;;83.53;23.08;;;;;;;11.51;84.51;100475.00;5067657;28;20052;-19
2021/11/04 04:41:02;;;;;;;62.05;23.25;;;;;;;11.61;84.59;100466.53;5068591;28;20032;-20
2021/11/04 04:43:28;;;;;;;103.20;24.48;;;;;;;11.44;85.73;100466.22;5050463;28;20032;-20
2021/11/04 04:45:54;;;;;;;98.72;25.35;;;;;;;11.71;84.37;100471.38;5068392;28;20020;-20
2021/11/04 04:48:19;;;;;;;76.80;25.33;;;;;;;11.71;83.84;100471.38;5068493;28;20063;-20
2021/11/04 04:50:45;;;;;;;103.93;24.63;;;;;;;11.49;84.77;100492.28;5068255;28;20699;-20
2021/11/04 04:53:10;;;;;;;109.60;24.77;;;;;;;11.37;85.57;100470.78;5050342;28;20039;-20
2021/11/04 04:55:36;;;;;;;115.35;26.63;;;;;;;11.63;85.13;100481.31;5068119;28;20039;-22
2021/11/04 04:58:02;;;;;;;144.50;25.70;;;;;;;11.58;85.02;100478.44;5068379;28;20047;-20
2021/11/04 05:00:27;;;;;;;105.10;26.73;;;;;;;11.30;85.94;100481.50;5068181;28;20028;-20
2021/11/04 05:02:53;;;;;;;74.03;23.65;;;;;;;11.45;84.69;100484.69;5068492;28;20113;-19
2021/11/04 05:05:18;;;;;;;76.85;22.60;;;;;;;11.20;86.51;100495.31;5050243;28;20031;-20
2021/11/04 05:07:44;;;;;;;86.00;23.77;;;;;;;11.24;85.36;100482.38;5068025;28;20496;-20
2021/11/04 05:10:10;;;;;;;73.40;22.40;;;;;;;11.29;84.99;100487.06;5050114;28;20400;-20
2021/11/04 05:12:36;;;;;;;85.68;25.73;;;;;;;11.15;85.66;100487.09;5068100;28;20036;-20
2021/11/04 05:15:02;;;;;;;87.82;26.67;;;;;;;11.01;86.45;100477.50;5068038;28;20377;-20
2021/11/04 05:17:28;;;;;;;96.20;25.75;;;;;;;11.09;85.96;100497.81;5050021;28;20048;-20
2021/11/04 05:19:53;;;;;;;73.30;22.63;;;;;;;11.25;85.15;100490.13;5067958;28;20032;-20
2021/11/04 05:22:19;;;;;;;73.85;25.75;;;;;;;11.47;84.36;100492.50;5068301;28;20028;-20
2021/11/04 05:24:44;;;;;;;75.07;24.02;;;;;;;11.43;84.78;100497.44;5068154;28;20033;-19
2021/11/04 05:27:10;;;;;;;96.63;23.42;;;;;;;11.24;85.25;100504.53;5067358;28;20496;-20
2021/11/04 05:29:35;;;;;;;68.70;22.20;;;;;;;11.51;84.65;100496.38;5068111;28;20036;-20
2021/11/04 05:32:01;;;;;;;88.55;24.40;;;;;;;11.74;83.28;100508.38;5067839;28;20032;-20
2021/11/04 05:34:27;;;;;;;65.43;23.00;;;;;;;11.66;83.69;100504.91;5067858;28;20037;-21
2021/11/04 05:36:52;;;;;;;58.47;19.67;;;;;;;11.36;85.13;100501.19;5069186;28;20040;-20
2021/11/04 05:39:18;;;;;;;72.13;19.50;;;;;;;11.22;86.77;100503.94;5053870;28;20052;-20
2021/11/04 05:41:43;;;;;;;96.32;21.83;;;;;;;11.41;85.14;100501.38;5072256;28;20037;-20
2021/11/04 05:44:09;;;;;;;55.63;19.48;;;;;;;11.37;85.60;100513.50;5071704;28;20512;-19
2021/11/04 05:46:34;;;;;;;64.75;20.15;;;;;;;11.33;85.42;100522.97;5072306;28;20036;-20
2021/11/04 05:49:00;;;;;;;58.20;20.75;;;;;;;11.30;85.56;100528.72;5071798;28;20033;-20
2021/11/04 05:51:25;;;;;;;74.15;20.73;;;;;;;10.94;86.93;100496.22;5071659;28;20033;-20
2021/11/04 05:53:51;;;;;;;77.57;21.95;;;;;;;10.92;87.57;100522.31;5071282;28;20118;-20
2021/11/04 05:56:16;;;;;;;77.20;22.05;;;;;;;10.97;88.71;100529.66;5071857;28;20035;-20
2021/11/04 05:58:42;;;;;;;60.08;21.95;;;;;;;10.88;88.04;100509.59;5071557;28;20071;-19
2021/11/04 06:01:07;;;;;;;62.67;22.20;;;;;;;11.14;87.51;100520.19;5071314;28;20032;-20
2021/11/04 06:03:33;;;;;;;58.45;23.02;;;;;;;11.17;86.66;100517.06;5071646;28;20036;-20
2021/11/04 06:05:58;;;;;;;68.88;23.20;;;;;;;11.06;88.12;100523.09;5071327;28;20031;-19
2021/11/04 06:08:23;;;;;;;60.75;22.98;;;;;;;11.30;86.93;100528.72;5071842;28;20037;-21
2021/11/04 06:10:49;;;;;;;58.50;21.65;;;;;;;11.42;85.94;100535.03;5071547;28;20833;-20
2021/11/04 06:13:14;;;;;;;67.90;22.73;;;;;;;11.47;85.95;100532.56;5071165;28;20044;-19
2021/11/04 06:15:40;;;;;;;56.72;23.00;;;;;;;11.18;87.06;100532.06;5071197;28;20082;-20
2021/11/04 06:18:05;;;;;;;53.75;22.92;;;;;;;11.35;86.61;100526.25;5070948;28;20045;-20
2021/11/04 06:20:31;;;;;;;56.63;22.40;;;;;;;11.48;85.13;100512.81;5071285;28;20033;-20
2021/11/04 06:22:57;;;;;;;66.75;22.52;;;;;;;11.65;85.36;100532.66;5071407;28;20040;-20
2021/11/04 06:25:22;;;;;;;70.30;26.33;;;;;;;11.52;85.86;100516.69;5071041;28;20028;-21
2021/11/04 06:27:48;;;;;;;76.43;22.38;;;;;;;11.86;83.61;100520.00;5070675;28;20028;-19
2021/11/04 06:30:13;;;;;;;67.60;23.55;;;;;;;12.03;83.25;100525.66;5071005;28;20032;-20
2021/11/04 06:32:39;;;;;;;77.57;23.25;;;;;;;11.77;83.31;100516.78;5053011;28;20075;-20
2021/11/04 06:35:05;;;;;;;69.22;21.30;;;;;;;11.52;85.02;100526.56;5070894;28;20017;-20
2021/11/04 06:37:31;;;;;;;63.72;25.00;;;;;;;11.60;84.64;100512.97;5070783;28;20024;-20
2021/11/04 06:39:56;;;;;;;67.68;24.70;;;;;;;11.72;84.29;100526.47;5052358;28;20052;-20
2021/11/04 06:42:22;;;;;;;67.05;24.73;;;;;;;11.83;84.52;100539.16;5071027;28;20029;-20
2021/11/04 06:44:48;;;;;;;58.63;24.08;;;;;;;11.77;84.62;100534.66;5070800;28;20535;-21
2021/11/04 06:47:26;;;;;;;64.68;23.70;;;;;;;11.96;83.04;100524.91;5071151;28;20032;-20
2021/11/04 06:49:54;;;;;;;62.33;23.83;;;;;;;11.81;84.66;100535.84;5053296;28;20507;-20
2021/11/04 06:52:22;;;;;;;;;;;;;;;11.60;84.56;100535.16;5071395;28;20866;-20
2021/11/04 06:54:47;;;;;;;52.53;24.30;;;;;;;11.50;85.41;100545.47;5069215;28;19916;-20
2021/11/04 06:57:17;;;;;;;62.13;23.65;;;;;;;11.45;86.67;100522.09;5052857;28;20492;-21
2021/11/04 06:59:42;;;;;;;57.33;24.05;;;;;;;11.54;86.24;100530.66;5052296;28;20024;-20
2021/11/04 07:02:08;;;;;;;54.05;23.02;;;;;;;11.81;86.53;100514.47;5036456;28;20469;-20
2021/11/04 07:04:36;;;;;;;53.42;23.33;;;;;;;11.93;84.25;100528.00;5070410;28;20032;-20
2021/11/04 07:07:13;;;;;;;53.05;24.88;;;;;;;11.66;85.80;100517.44;5070502;28;20125;-21
2021/11/04 07:09:41;;;;;;;50.57;21.97;;;;;;;11.88;84.99;100531.28;5070251;28;20476;-22
2021/11/04 07:12:11;;;;;;;48.85;21.05;;;;;;;12.05;84.46;100543.16;5070228;28;20041;-20
2021/11/04 07:14:39;;;;;;;42.40;19.77;;;;;;;11.81;85.51;100535.84;5052750;28;20478;-20
2021/11/04 07:17:04;;;;;;;53.70;22.80;;;;;;;11.70;86.67;100544.56;5035839;28;20515;-20
2021/11/04 07:19:31;;;;;;;47.42;19.75;;;;;;;11.38;87.96;100520.47;5070349;28;20036;-20
2021/11/04 07:22:18;;;;;;;49.08;20.48;;;;;;;12.15;85.90;100552.53;5069490;28;20123;-22
2021/11/04 07:24:50;;;;;;;54.08;20.85;;;;;;;12.41;84.09;100552.31;5070468;28;20029;-20
2021/11/04 07:27:19;;;;;;;46.70;20.45;;;;;;;12.17;85.06;100529.06;5070084;28;20029;-19
2021/11/04 07:29:46;;;;;;;52.00;20.85;;;;;;;11.91;87.40;100551.44;5051872;28;20104;-20
2021/11/04 07:32:14;;;;;;;48.85;21.15;;;;;;;11.83;87.61;100544.50;5052223;28;20031;-20
2021/11/04 07:34:44;;;;;;;51.25;23.10;;;;;;;11.95;88.63;100552.66;5069802;28;20086;-19
2021/11/04 07:37:10;;;;;;;53.03;22.90;;;;;;;11.87;88.81;100545.72;5052139;28;20131;-20
2021/11/04 07:39:36;;;;;;;44.90;19.65;;;;;;;11.91;87.33;100554.97;5069470;28;20084;-19
2021/11/04 07:42:02;;;;;;;44.53;21.05;;;;;;;12.33;86.27;100560.59;5051503;28;20055;-19
2021/11/04 07:44:28;;;;;;;50.80;20.90;;;;;;;12.38;86.73;100557.28;5051684;28;20037;-19
2021/11/04 07:46:53;;;;;;;43.95;20.02;;;;;;;12.45;87.51;100553.50;5069418;28;20078;-19
2021/11/04 07:49:19;;;;;;;46.08;22.60;;;;;;;12.59;86.39;100553.41;5069898;28;20036;-20
2021/11/04 07:51:46;;;;;;;41.58;20.33;;;;;;;12.21;86.69;100552.47;5069026;28;20059;-21
2021/11/04 07:54:11;;;;;;;43.80;22.38;;;;;;;12.51;86.08;100542.97;5051633;28;20500;-19
2021/11/04 07:56:37;;;;;;;52.58;22.90;;;;;;;12.66;86.53;100562.16;5069343;28;20063;-20
2021/11/04 07:59:02;;;;;;;44.30;22.45;;;;;;;12.83;85.11;100554.38;5034655;28;20040;-20
2021/11/04 08:01:28;;;;;;;46.60;22.95;;;;;;;13.22;84.30;100565.72;5068850;28;20036;-20
2021/11/04 08:03:53;;;;;;;47.55;21.85;;;;;;;13.34;83.61;100566.63;5069098;28;20480;-21
2021/11/04 08:06:19;;;;;;;45.70;21.85;;;;;;;13.45;83.63;100565.06;5069074;28;20075;-19
2021/11/04 08:08:44;;;;;;;44.58;21.90;;;;;;;13.78;81.51;100558.44;5069093;28;20040;-20
2021/11/04 08:11:09;;;;;;;63.50;32.80;;;;;;;13.44;82.44;100563.41;5068972;28;20032;-20
2021/11/04 08:13:35;;;;;;;57.95;29.75;;;;;;;13.57;82.22;100549.84;5069229;28;20059;-20
2021/11/04 08:16:01;;;;;;;47.80;24.08;;;;;;;13.73;81.30;100545.72;5068535;28;20109;-20
2021/11/04 08:18:26;;;;;;;45.95;23.70;;;;;;;13.42;81.29;100552.09;5068723;28;20044;-19
2021/11/04 08:20:52;;;;;;;56.13;26.60;;;;;;;13.32;83.36;100559.84;5068667;28;20020;-20
2021/11/04 08:23:17;;;;;;;47.33;23.67;;;;;;;13.10;83.44;100554.94;5068851;28;20412;-20
2021/11/04 08:25:43;;;;;;;45.08;24.70;;;;;;;13.53;82.89;100553.22;5068443;28;20032;-20
2021/11/04 08:28:08;;;;;;;46.88;24.13;;;;;;;13.52;82.82;100551.56;5068454;28;20412;-20
2021/11/04 08:30:34;;;;;;;51.10;25.75;;;;;;;13.87;82.42;100565.09;5077440;28;20499;-23
2021/11/04 08:33:00;;;;;;;50.63;27.05;;;;;;;13.97;80.90;100551.13;5060230;28;20024;-19
2021/11/04 08:35:25;;;;;;;51.13;25.20;;;;;;;13.85;81.40;100565.34;5078627;28;20013;-20
2021/11/04 08:37:51;;;;;;;50.10;24.70;;;;;;;13.71;81.62;100555.00;5076643;28;20032;-22
2021/11/04 08:40:17;;;;;;;51.17;25.15;;;;;;;13.69;81.29;100563.31;5070958;28;20112;-21
2021/11/04 08:42:42;;;;;;;51.53;25.42;;;;;;;13.63;83.42;100565.03;5068726;28;20195;-20
2021/11/04 08:45:09;;;;;;;47.83;24.20;;;;;;;13.51;82.93;100566.84;5068505;28;20768;-22
2021/11/04 08:47:35;;;;;;;50.90;23.42;;;;;;;13.35;83.85;100564.78;5068270;28;20032;-21
2021/11/04 08:50:00;;;;;;;47.78;23.60;;;;;;;13.83;82.75;100569.28;5068245;28;20090;-21
2021/11/04 08:52:27;;;;;;;48.60;24.83;;;;;;;14.02;80.90;100573.53;5050614;28;20044;-20
2021/11/04 08:54:52;;;;;;;50.92;25.38;;;;;;;14.15;80.42;100574.41;5068492;28;20028;-20
2021/11/04 08:57:19;;;;;;;49.20;26.08;;;;;;;13.93;81.53;100574.91;5068530;28;20033;-20
2021/11/04 08:59:45;;;;;;;53.83;27.58;;;;;;;13.61;84.15;100577.03;5050131;28;20028;-21
2021/11/04 09:02:15;;;;;;;48.95;24.27;;;;;;;13.53;84.50;100562.06;5068373;28;20040;-20
2021/11/04 09:04:42;;;;;;;49.10;25.88;;;;;;;13.95;82.39;100585.41;5050555;28;20036;-21
2021/11/04 09:07:15;;;;;;;44.10;24.80;;;;;;;13.84;82.19;100590.50;5050564;28;20085;-20
2021/11/04 09:09:40;;;;;;;51.20;26.20;;;;;;;13.70;83.26;100574.84;5050476;28;20032;-23
2021/11/04 09:12:06;;;;;;;53.38;27.63;;;;;;;13.99;82.00;100584.72;5067529;28;20032;-20
2021/11/04 09:14:32;;;;;;;59.90;28.85;;;;;;;13.89;82.54;100584.44;5050091;28;20032;-20
2021/11/04 09:16:57;;;;;;;52.92;28.52;;;;;;;13.58;83.43;100564.06;5068293;28;20036;-20
2021/11/04 09:19:23;;;;;;;59.53;29.88;;;;;;;13.54;84.76;100576.28;5067894;28;20032;-19
2021/11/04 09:21:48;;;;;;;60.75;32.08;;;;;;;13.60;85.33;100565.47;5068006;28;20119;-20
2021/11/04 09:24:14;;;;;;;48.00;25.83;;;;;;;13.99;83.30;100573.19;5068143;28;20028;-20
2021/11/04 09:26:41;;;;;;;47.83;24.85;;;;;;;14.44;80.82;100576.22;5068111;28;20032;-20
2021/11/04 09:29:06;;;;;;;53.35;27.83;;;;;;;13.91;82.37;100547.50;5068158;28;20036;-20
2021/11/04 09:31:33;;;;;;;55.03;27.98;;;;;;;14.06;82.11;100577.41;5068009;28;20111;-21
2021/11/04 09:33:58;;;;;;;55.78;29.05;;;;;;;13.95;82.73;100551.38;5067566;28;20051;-20
2021/11/04 09:36:28;;;;;;;54.40;27.52;;;;;;;14.28;81.89;100571.50;5049838;28;20033;-20
2021/11/04 09:38:54;;;;;;;49.33;26.70;;;;;;;14.27;81.41;100559.13;5067878;28;20067;-20
2021/11/04 09:41:20;;;;;;;55.55;27.88;;;;;;;14.30;81.65;100557.84;5049977;28;20790;-21
2021/11/04 09:43:46;;;;;;;49.55;28.27;;;;;;;14.54;80.99;100558.69;5067674;28;20115;-22
2021/11/04 09:46:12;;;;;;;40.10;24.70;;;;;;;14.68;79.31;100546.72;5067722;28;20036;-21
2021/11/04 09:48:37;;;;;;;43.50;25.25;;;;;;;14.73;78.70;100549.53;5067501;28;20037;-20
2021/11/04 09:51:03;;;;;;;39.60;24.17;;;;;;;14.69;79.39;100553.72;5067682;28;20025;-20
2021/11/04 09:53:29;;;;;;;44.45;25.35;;;;;;;14.73;78.31;100546.84;5067497;28;20041;-20
2021/11/04 09:55:55;;;;;;;46.50;27.17;;;;;;;14.75;78.29;100544.72;5067220;28;20409;-20
2021/11/04 09:58:21;;;;;;;41.25;25.40;;;;;;;14.78;77.83;100552.31;5067483;28;20123;-22
2021/11/04 10:00:46;;;;;;;46.45;26.40;;;;;;;14.62;78.87;100550.31;5068026;28;20037;-20
2021/11/04 10:03:14;;;;;;;50.05;26.80;;;;;;;14.75;78.85;100557.31;5049925;28;20033;-20
2021/11/04 10:05:52;;;;;;;45.80;26.60;;;;;;;14.30;80.55;100533.69;5067606;28;20075;-20
2021/11/04 10:08:30;;;;;;;49.75;27.10;;;;;;;13.90;82.45;100521.75;5067656;28;20103;-19
2021/11/04 10:11:11;;;;;;;52.63;28.05;;;;;;;14.01;83.06;100528.19;5067910;28;20052;-22
2021/11/04 10:13:37;;;;;;;50.58;27.80;;;;;;;14.29;81.74;100540.13;5067538;28;20112;-21
2021/11/04 10:16:03;;;;;;;50.00;26.75;;;;;;;13.93;83.90;100532.00;5067431;28;20063;-20
2021/11/04 10:18:29;;;;;;;47.78;26.17;;;;;;;14.24;81.65;100528.22;5049799;28;20036;-20
2021/11/04 10:20:59;;;;;;;47.13;27.45;;;;;;;14.19;82.67;100513.88;5032670;28;20029;-20
2021/11/04 10:23:26;;;;;;;45.65;26.65;;;;;;;14.03;82.44;100508.13;5068874;28;20585;-20
2021/11/04 10:26:02;;;;;;;39.95;24.75;;;;;;;14.22;81.14;100513.41;5070852;28;20123;-20
2021/11/04 10:28:30;;;;;;;49.60;30.45;;;;;;;14.40;80.96;100528.56;5071106;28;20040;-20
2021/11/04 10:30:56;;;;;;;45.10;27.67;;;;;;;14.46;80.99;100515.06;5071047;28;20039;-20
2021/11/04 10:33:24;;;;;;;42.63;26.00;;;;;;;14.56;80.58;100513.69;5071112;28;20121;-20
2021/11/04 10:35:59;;;;;;;44.40;26.63;;;;;;;14.49;80.69;100510.28;5070505;28;20028;-20
2021/11/04 10:38:32;;;;;;;41.83;25.88;;;;;;;14.22;80.95;100498.13;5070869;28;20370;-19
2021/11/04 10:40:57;;;;;;;43.45;25.65;;;;;;;14.78;79.71;100516.59;5070895;28;20039;-20
2021/11/04 10:43:23;;;;;;;39.75;24.85;;;;;;;14.78;79.49;100525.44;5070796;28;20036;-20
2021/11/04 10:46:08;;;;;;;42.92;26.77;;;;;;;15.09;78.53;100519.91;5070662;28;20021;-20
2021/11/04 10:48:34;;;;;;;40.95;26.40;;;;;;;15.11;77.52;100515.94;5070728;28;20024;-20
2021/11/04 10:51:00;;;;;;;45.88;27.25;;;;;;;15.01;78.19;100516.53;5070814;28;20094;-20
2021/11/04 10:53:25;;;;;;;43.53;25.58;;;;;;;14.76;78.64;100508.75;5070603;28;20036;-21
2021/11/04 10:56:11;;;;;;;41.30;26.75;;;;;;;14.53;79.38;100519.50;5052637;28;20024;-20
2021/11/04 10:58:37;;;;;;;41.33;25.63;;;;;;;14.61;79.55;100519.19;5055451;28;20041;-21
2021/11/04 11:01:03;;;;;;;42.30;24.65;;;;;;;14.69;79.23;100513.47;5052440;28;20462;-21
2021/11/04 11:03:29;;;;;;;40.78;25.48;;;;;;;14.53;79.98;100519.50;5070323;28;20036;-21
2021/11/04 11:05:59;;;;;;;42.47;26.98;;;;;;;14.76;79.47;100524.88;5070237;28;20028;-21